Time,TemperatureF,DewpointF,PressureIn,WindDirection,WindDirectionDegrees,WindSpeedMPH,WindSpeedGustMPH,Humidity,HourlyPrecipIn,Conditions,Clouds,dailyrainin,SolarRadiationWatts/m^2,SoftwareType,DateUTC
2013-04-26 00:01:00,39.0,0.0,-100.00,WNW,288,6.0,13.0,19,0.00,,,-99.99,0.000000,,2013-04-26 07:01:00,
2013-04-26 00:11:00,39.0,0.0,-100.00,WNW,288,6.0,13.0,19,0.00,,,-99.99,0.000000,,2013-04-26 07:11:00,
2013-04-26 00:32:00,37.0,3.0,-100.00,West,269,6.0,11.0,23,0.00,,,0.00,0.000000,,2013-04-26 07:32:00,
2013-04-26 00:42:00,37.0,3.0,-100.00,West,269,6.0,11.0,23,0.00,,,0.00,0.000000,,2013-04-26 07:42:00,
2013-04-26 00:52:00,37.0,3.0,-100.00,West,269,6.0,11.0,23,0.00,,,0.00,0.000000,,2013-04-26 07:52:00,
2013-04-26 01:02:00,37.0,3.0,-100.00,West,269,6.0,11.0,23,0.00,,,0.00,0.000000,,2013-04-26 08:02:00,
2013-04-26 01:11:00,37.0,3.0,-100.00,West,269,6.0,11.0,23,0.00,,,0.00,0.000000,,2013-04-26 08:11:00,
2013-04-26 01:32:00,37.0,3.0,-100.00,West,262,6.0,11.0,23,0.00,,,0.00,0.000000,,2013-04-26 08:32:00,
2013-04-26 01:42:00,37.0,3.0,-100.00,West,262,6.0,11.0,23,0.00,,,0.00,0.000000,,2013-04-26 08:42:00,
2013-04-26 01:52:00,37.0,3.0,-100.00,West,262,6.0,11.0,23,0.00,,,0.00,0.000000,,2013-04-26 08:52:00,
2013-04-26 02:01:00,37.0,3.0,-100.00,West,262,6.0,11.0,23,0.00,,,0.00,0.000000,,2013-04-26 09:01:00,
2013-04-26 02:11:00,37.0,3.0,-100.00,West,262,6.0,11.0,23,0.00,,,0.00,0.000000,,2013-04-26 09:11:00,
2013-04-26 02:12:00,39.0,3.0,-100.00,West,278,7.0,11.0,22,0.00,,,0.00,0.000000,,2013-04-26 09:12:00,
2013-04-26 02:33:00,39.0,3.0,-100.00,West,278,7.0,11.0,22,0.00,,,0.00,0.000000,,2013-04-26 09:33:00,
2013-04-26 02:43:00,39.0,3.0,-100.00,West,278,7.0,11.0,22,0.00,,,0.00,0.000000,,2013-04-26 09:43:00,
2013-04-26 02:53:00,39.0,3.0,-100.00,West,278,7.0,11.0,22,0.00,,,0.00,0.000000,,2013-04-26 09:53:00,
2013-04-26 03:03:00,39.0,3.0,-100.00,West,278,7.0,11.0,22,0.00,,,0.00,0.000000,,2013-04-26 10:03:00,
2013-04-26 03:33:00,37.0,4.0,-100.00,West,274,7.0,10.0,24,0.00,,,0.00,0.000000,,2013-04-26 10:33:00,
2013-04-26 03:42:00,37.0,4.0,-100.00,West,274,7.0,10.0,24,0.00,,,0.00,0.000000,,2013-04-26 10:42:00,
2013-04-26 03:52:00,37.0,4.0,-100.00,West,274,7.0,10.0,24,0.00,,,0.00,0.000000,,2013-04-26 10:52:00,
2013-04-26 04:02:00,37.0,4.0,-100.00,West,274,7.0,10.0,24,0.00,,,0.00,0.000000,,2013-04-26 11:02:00,
2013-04-26 04:11:00,37.0,4.0,-100.00,West,274,7.0,10.0,24,0.00,,,0.00,0.000000,,2013-04-26 11:11:00,
2013-04-26 04:32:00,39.0,4.0,-100.00,West,280,5.0,10.0,23,0.00,,,0.00,0.000000,,2013-04-26 11:32:00,
2013-04-26 04:42:00,39.0,4.0,-100.00,West,280,5.0,10.0,23,0.00,,,0.00,0.000000,,2013-04-26 11:42:00,
2013-04-26 04:52:00,39.0,4.0,-100.00,West,280,5.0,10.0,23,0.00,,,0.00,0.000000,,2013-04-26 11:52:00,
2013-04-26 05:01:00,39.0,4.0,-100.00,West,280,5.0,10.0,23,0.00,,,0.00,0.000000,,2013-04-26 12:01:00,
2013-04-26 05:11:00,39.0,4.0,-100.00,West,280,5.0,10.0,23,0.00,,,0.00,0.000000,,2013-04-26 12:11:00,
2013-04-26 05:32:00,39.0,4.0,-100.00,West,272,0.0,0.0,23,0.00,,,-99.99,0.000000,,2013-04-26 12:32:00,
2013-04-26 05:42:00,39.0,4.0,-100.00,West,272,0.0,0.0,23,0.00,,,-99.99,0.000000,,2013-04-26 12:42:00,
2013-04-26 05:52:00,39.0,4.0,-100.00,West,272,0.0,0.0,23,0.00,,,-99.99,0.000000,,2013-04-26 12:52:00,
2013-04-26 06:01:00,39.0,4.0,-100.00,West,272,0.0,0.0,23,0.00,,,-99.99,0.000000,,2013-04-26 13:01:00,
2013-04-26 06:11:00,39.0,4.0,-100.00,West,272,0.0,0.0,23,0.00,,,-99.99,0.000000,,2013-04-26 13:11:00,
2013-04-26 06:32:00,40.0,7.0,-100.00,WNW,283,3.0,8.0,25,0.00,,,0.00,9.000000,,2013-04-26 13:32:00,
2013-04-26 06:42:00,40.0,7.0,-100.00,WNW,283,3.0,8.0,25,0.00,,,0.00,9.000000,,2013-04-26 13:42:00,
2013-04-26 06:52:00,40.0,7.0,-100.00,WNW,283,3.0,8.0,25,0.00,,,0.00,9.000000,,2013-04-26 13:52:00,
2013-04-26 07:11:00,40.0,7.0,-100.00,WNW,283,3.0,8.0,25,0.00,,,0.00,9.000000,,2013-04-26 14:11:00,
2013-04-26 07:42:00,45.0,9.0,-100.00,WSW,249,4.0,11.0,23,-99.99,,,0.00,35.000000,,2013-04-26 14:42:00,
2013-04-26 07:52:00,45.0,9.0,-100.00,WSW,249,4.0,11.0,23,-99.99,,,0.00,35.000000,,2013-04-26 14:52:00,
2013-04-26 08:11:00,45.0,9.0,-100.00,WSW,249,4.0,11.0,23,-99.99,,,0.00,35.000000,,2013-04-26 15:11:00,
2013-04-26 08:12:00,49.0,10.0,-100.00,ENE,75,3.0,8.0,20,-99.99,,,-99.99,289.000000,,2013-04-26 15:12:00,
2013-04-26 08:33:00,49.0,10.0,-100.00,ENE,75,3.0,8.0,20,-99.99,,,-99.99,289.000000,,2013-04-26 15:33:00,
2013-04-26 08:43:00,49.0,10.0,-100.00,ENE,75,3.0,8.0,20,-99.99,,,-99.99,289.000000,,2013-04-26 15:43:00,
2013-04-26 08:53:00,49.0,10.0,-100.00,ENE,75,3.0,8.0,20,-99.99,,,-99.99,289.000000,,2013-04-26 15:53:00,
2013-04-26 09:03:00,49.0,10.0,-100.00,ENE,75,3.0,8.0,20,-99.99,,,-99.99,289.000000,,2013-04-26 16:03:00,
2013-04-26 09:33:00,49.0,11.0,-100.00,East,91,5.0,12.0,21,0.00,,,0.00,60.000000,,2013-04-26 16:33:00,
2013-04-26 09:42:00,49.0,11.0,-100.00,East,91,5.0,12.0,21,0.00,,,0.00,60.000000,,2013-04-26 16:42:00,
2013-04-26 09:52:00,49.0,11.0,-100.00,East,91,5.0,12.0,21,0.00,,,0.00,60.000000,,2013-04-26 16:52:00,
2013-04-26 10:02:00,49.0,11.0,-100.00,East,91,5.0,12.0,21,0.00,,,0.00,60.000000,,2013-04-26 17:02:00,
2013-04-26 10:11:00,49.0,11.0,-100.00,East,91,5.0,12.0,21,0.00,,,0.00,60.000000,,2013-04-26 17:11:00,
2013-04-26 10:42:00,52.0,12.0,-100.00,ESE,105,3.0,14.0,20,0.00,,,0.00,815.000000,,2013-04-26 17:42:00,
2013-04-26 10:52:00,52.0,12.0,-100.00,ESE,105,3.0,14.0,20,0.00,,,0.00,815.000000,,2013-04-26 17:52:00,
2013-04-26 11:02:00,52.0,12.0,-100.00,ESE,105,3.0,14.0,20,0.00,,,0.00,815.000000,,2013-04-26 18:02:00,
2013-04-26 11:11:00,52.0,12.0,-100.00,ESE,105,3.0,14.0,20,0.00,,,0.00,815.000000,,2013-04-26 18:11:00,
2013-04-26 11:33:00,52.0,13.0,-100.00,West,275,5.0,11.0,21,0.00,,,0.00,925.000000,,2013-04-26 18:33:00,
2013-04-26 11:42:00,52.0,13.0,-100.00,West,275,5.0,11.0,21,0.00,,,0.00,925.000000,,2013-04-26 18:42:00,
2013-04-26 11:52:00,52.0,13.0,-100.00,West,275,5.0,11.0,21,0.00,,,0.00,925.000000,,2013-04-26 18:52:00,
2013-04-26 12:01:00,52.0,13.0,-100.00,West,275,5.0,11.0,21,0.00,,,0.00,925.000000,,2013-04-26 19:01:00,
2013-04-26 12:11:00,52.0,13.0,-100.00,West,275,5.0,11.0,21,0.00,,,0.00,925.000000,,2013-04-26 19:11:00,
2013-04-26 12:32:00,52.0,13.0,-100.00,WNW,284,6.0,16.0,21,0.00,,,0.00,960.000000,,2013-04-26 19:32:00,
2013-04-26 12:42:00,52.0,13.0,-100.00,WNW,284,6.0,16.0,21,0.00,,,0.00,960.000000,,2013-04-26 19:42:00,
2013-04-26 12:52:00,52.0,13.0,-100.00,WNW,284,6.0,16.0,21,0.00,,,0.00,960.000000,,2013-04-26 19:52:00,
2013-04-26 13:02:00,52.0,13.0,-100.00,WNW,284,6.0,16.0,21,0.00,,,0.00,960.000000,,2013-04-26 20:02:00,
2013-04-26 13:11:00,52.0,13.0,-100.00,WNW,284,6.0,16.0,21,0.00,,,0.00,960.000000,,2013-04-26 20:11:00,
2013-04-26 13:42:00,54.0,9.0,-100.00,WNW,292,8.0,16.0,16,0.00,,,0.00,1002.000000,,2013-04-26 20:42:00,
2013-04-26 13:52:00,54.0,9.0,-100.00,WNW,292,8.0,16.0,16,0.00,,,0.00,1002.000000,,2013-04-26 20:52:00,
2013-04-26 14:01:00,54.0,9.0,-100.00,WNW,292,8.0,16.0,16,0.00,,,0.00,1002.000000,,2013-04-26 21:01:00,
2013-04-26 14:11:00,54.0,9.0,-100.00,WNW,292,8.0,16.0,16,0.00,,,0.00,1002.000000,,2013-04-26 21:11:00,
2013-04-26 14:12:00,53.0,2.0,-100.00,WNW,292,10.0,18.0,12,0.00,,,0.00,915.000000,,2013-04-26 21:12:00,
2013-04-26 14:33:00,53.0,2.0,-100.00,WNW,292,10.0,18.0,12,0.00,,,0.00,915.000000,,2013-04-26 21:33:00,
2013-04-26 14:42:00,53.0,2.0,-100.00,WNW,292,10.0,18.0,12,0.00,,,0.00,915.000000,,2013-04-26 21:42:00,
2013-04-26 14:53:00,53.0,2.0,-100.00,WNW,292,10.0,18.0,12,0.00,,,0.00,915.000000,,2013-04-26 21:53:00,
2013-04-26 15:02:00,53.0,2.0,-100.00,WNW,292,10.0,18.0,12,0.00,,,0.00,915.000000,,2013-04-26 22:02:00,
2013-04-26 15:33:00,55.0,3.0,-100.00,WNW,289,5.0,13.0,12,0.00,,,0.00,783.000000,,2013-04-26 22:33:00,
2013-04-26 15:42:00,55.0,3.0,-100.00,WNW,289,5.0,13.0,12,0.00,,,0.00,783.000000,,2013-04-26 22:42:00,
2013-04-26 15:52:00,55.0,3.0,-100.00,WNW,289,5.0,13.0,12,0.00,,,0.00,783.000000,,2013-04-26 22:52:00,
2013-04-26 16:01:00,55.0,3.0,-100.00,WNW,289,5.0,13.0,12,0.00,,,0.00,783.000000,,2013-04-26 23:01:00,
2013-04-26 16:11:00,55.0,3.0,-100.00,WNW,289,5.0,13.0,12,0.00,,,0.00,783.000000,,2013-04-26 23:11:00,
2013-04-26 16:32:00,56.0,6.0,-100.00,WSW,248,5.0,14.0,13,0.00,,,0.00,618.000000,,2013-04-26 23:32:00,
2013-04-26 16:42:00,56.0,6.0,-100.00,WSW,248,5.0,14.0,13,0.00,,,0.00,618.000000,,2013-04-26 23:42:00,
2013-04-26 16:52:00,56.0,6.0,-100.00,WSW,248,5.0,14.0,13,0.00,,,0.00,618.000000,,2013-04-26 23:52:00,
2013-04-26 17:01:00,56.0,6.0,-100.00,WSW,248,5.0,14.0,13,0.00,,,0.00,618.000000,,2013-04-27 00:01:00,
2013-04-26 17:11:00,56.0,6.0,-100.00,WSW,248,5.0,14.0,13,0.00,,,0.00,618.000000,,2013-04-27 00:11:00,
2013-04-26 17:32:00,56.0,10.0,-100.00,WNW,296,1.0,14.0,16,0.00,,,0.00,345.000000,,2013-04-27 00:32:00,
2013-04-26 17:42:00,56.0,10.0,-100.00,WNW,296,1.0,14.0,16,0.00,,,0.00,345.000000,,2013-04-27 00:42:00,
2013-04-26 17:52:00,56.0,10.0,-100.00,WNW,296,1.0,14.0,16,0.00,,,0.00,345.000000,,2013-04-27 00:52:00,
2013-04-26 18:01:00,56.0,10.0,-100.00,WNW,296,1.0,14.0,16,0.00,,,0.00,345.000000,,2013-04-27 01:01:00,
2013-04-26 18:11:00,56.0,10.0,-100.00,WNW,296,1.0,14.0,16,0.00,,,0.00,345.000000,,2013-04-27 01:11:00,
2013-04-26 18:42:00,52.0,9.0,-100.00,NNW,332,5.0,16.0,17,0.00,,,0.00,201.000000,,2013-04-27 01:42:00,
2013-04-26 18:52:00,52.0,9.0,-100.00,NNW,332,5.0,16.0,17,0.00,,,0.00,201.000000,,2013-04-27 01:52:00,
2013-04-26 19:01:00,52.0,9.0,-100.00,NNW,332,5.0,16.0,17,0.00,,,0.00,201.000000,,2013-04-27 02:01:00,
2013-04-26 19:11:00,52.0,9.0,-100.00,NNW,332,5.0,16.0,17,0.00,,,0.00,201.000000,,2013-04-27 02:11:00,
2013-04-26 19:42:00,48.0,10.0,-100.00,West,274,6.0,15.0,21,0.00,,,0.00,23.000000,,2013-04-27 02:42:00,
2013-04-26 19:52:00,48.0,10.0,-100.00,West,274,6.0,15.0,21,0.00,,,0.00,23.000000,,2013-04-27 02:52:00,
2013-04-26 20:02:00,48.0,10.0,-100.00,West,274,6.0,15.0,21,0.00,,,0.00,23.000000,,2013-04-27 03:02:00,
2013-04-26 20:11:00,48.0,10.0,-100.00,West,274,6.0,15.0,21,0.00,,,0.00,23.000000,,2013-04-27 03:11:00,
2013-04-26 20:12:00,46.0,9.0,-100.00,West,279,4.0,11.0,22,0.00,,,0.00,3.000000,,2013-04-27 03:12:00,
2013-04-26 20:43:00,46.0,9.0,-100.00,West,279,4.0,11.0,22,0.00,,,0.00,3.000000,,2013-04-27 03:43:00,
2013-04-26 20:53:00,46.0,9.0,-100.00,West,279,4.0,11.0,22,0.00,,,0.00,3.000000,,2013-04-27 03:53:00,
2013-04-26 21:02:00,46.0,9.0,-100.00,West,279,4.0,11.0,22,0.00,,,0.00,3.000000,,2013-04-27 04:02:00,
2013-04-26 21:12:00,45.0,12.0,-100.00,West,276,5.0,8.0,26,0.00,,,0.00,0.000000,,2013-04-27 04:12:00,
2013-04-26 21:43:00,45.0,12.0,-100.00,West,276,5.0,8.0,26,0.00,,,0.00,0.000000,,2013-04-27 04:43:00,
2013-04-26 21:53:00,45.0,12.0,-100.00,West,276,5.0,8.0,26,0.00,,,0.00,0.000000,,2013-04-27 04:53:00,
2013-04-26 22:02:00,45.0,12.0,-100.00,West,276,5.0,8.0,26,0.00,,,0.00,0.000000,,2013-04-27 05:02:00,
2013-04-26 22:42:00,45.0,11.0,-100.00,WNW,289,0.0,8.0,25,0.00,,,0.00,0.000000,,2013-04-27 05:42:00,
2013-04-26 22:52:00,45.0,11.0,-100.00,WNW,289,0.0,8.0,25,0.00,,,0.00,0.000000,,2013-04-27 05:52:00,
2013-04-26 23:01:00,45.0,11.0,-100.00,WNW,289,0.0,8.0,25,0.00,,,0.00,0.000000,,2013-04-27 06:01:00,
2013-04-26 23:11:00,45.0,11.0,-100.00,WNW,289,0.0,8.0,25,0.00,,,0.00,0.000000,,2013-04-27 06:11:00,